createdAt,value
2018-09-17T00:00:31.434Z,1013.14
2018-09-17T00:01:31.419Z,1013.11
2018-09-17T00:02:31.400Z,1013.09
2018-09-17T00:03:31.380Z,1013.09
2018-09-17T00:04:31.363Z,1013.10
2018-09-17T00:05:31.347Z,1013.09
2018-09-17T00:06:31.327Z,1013.03
2018-09-17T00:07:31.314Z,1012.99
2018-09-17T00:08:31.292Z,1013.00
2018-09-17T00:09:31.277Z,1013.04
2018-09-17T00:10:31.255Z,1013.03
2018-09-17T00:11:31.239Z,1012.99
2018-09-17T00:12:31.247Z,1013.04
2018-09-17T00:13:31.202Z,1013.00
2018-09-17T00:14:31.184Z,1013.03
2018-09-17T00:15:31.168Z,1013.06
2018-09-17T00:16:31.147Z,1013.07
2018-09-17T00:17:31.130Z,1013.09
2018-09-17T00:18:31.120Z,1013.10
2018-09-17T00:19:31.099Z,1013.12
2018-09-17T00:20:31.075Z,1013.11
2018-09-17T00:21:31.058Z,1013.14
2018-09-17T00:22:31.040Z,1013.13
2018-09-17T00:23:31.027Z,1013.13
2018-09-17T00:24:31.004Z,1013.16
2018-09-17T00:25:30.987Z,1013.14
2018-09-17T00:26:30.996Z,1013.17
2018-09-17T00:27:30.950Z,1013.18
2018-09-17T00:28:30.935Z,1013.13
2018-09-17T00:29:30.917Z,1013.19
2018-09-17T00:30:30.896Z,1013.13
2018-09-17T00:31:30.882Z,1013.11
2018-09-17T00:32:30.862Z,1013.11
2018-09-17T00:33:30.842Z,1013.08
2018-09-17T00:34:30.828Z,1013.07
2018-09-17T00:35:30.814Z,1013.06
2018-09-17T00:36:30.789Z,1013.04
2018-09-17T00:37:30.771Z,1013.07
2018-09-17T00:38:30.753Z,1013.09
2018-09-17T00:39:30.749Z,1013.05
2018-09-17T00:40:30.720Z,1013.07
2018-09-17T00:41:30.701Z,1013.04
2018-09-17T00:42:30.682Z,1013.02
2018-09-17T00:43:30.664Z,1013.05
2018-09-17T00:44:30.652Z,1013.00
2018-09-17T00:45:30.630Z,1013.00
2018-09-17T00:46:30.610Z,1013.04
2018-09-17T00:47:30.594Z,1012.98
2018-09-17T00:48:30.572Z,1012.98
2018-09-17T00:49:30.553Z,1012.97
2018-09-17T00:50:30.535Z,1012.98
2018-09-17T00:51:30.520Z,1012.99
2018-09-17T00:52:30.507Z,1012.97
2018-09-17T00:53:30.489Z,1012.98
2018-09-17T00:54:30.465Z,1012.97
2018-09-17T00:55:30.447Z,1012.97
2018-09-17T00:56:30.433Z,1012.95
2018-09-17T00:57:30.410Z,1012.94
2018-09-17T00:58:30.393Z,1012.94
2018-09-17T00:59:30.377Z,1012.88
2018-09-17T01:00:30.362Z,1012.92
2018-09-17T01:01:30.339Z,1012.88
2018-09-17T01:02:30.322Z,1012.89
2018-09-17T01:03:30.306Z,1012.91
2018-09-17T01:04:30.303Z,1012.90
2018-09-17T01:05:30.265Z,1012.88
2018-09-17T01:06:30.247Z,1012.88
2018-09-17T01:07:30.231Z,1012.97
2018-09-17T01:08:30.220Z,1012.91
2018-09-17T01:09:30.227Z,1012.93
2018-09-17T01:10:30.190Z,1012.93
2018-09-17T01:11:30.163Z,1012.91
2018-09-17T01:12:30.147Z,1012.94
2018-09-17T01:13:30.119Z,1012.92
2018-09-17T01:14:30.102Z,1012.92
2018-09-17T01:15:30.091Z,1012.94
2018-09-17T01:16:30.072Z,1012.92
2018-09-17T01:17:30.048Z,1012.92
2018-09-17T01:18:30.029Z,1012.88
2018-09-17T01:19:30.014Z,1012.88
2018-09-17T01:20:29.994Z,1012.89
2018-09-17T01:21:29.993Z,1012.89
2018-09-17T01:22:29.959Z,1012.88
2018-09-17T01:23:29.938Z,1012.93
2018-09-17T01:24:29.920Z,1012.93
2018-09-17T01:25:29.919Z,1012.95
2018-09-17T01:26:29.887Z,1012.93
2018-09-17T01:27:29.867Z,1012.95
2018-09-17T01:28:29.848Z,1012.95
2018-09-17T01:29:29.843Z,1012.93
2018-09-17T01:30:29.832Z,1012.91
2018-09-17T01:31:29.797Z,1012.90
2018-09-17T01:32:29.775Z,1012.85
2018-09-17T01:33:29.756Z,1012.83
2018-09-17T01:34:29.741Z,1012.76
2018-09-17T01:35:29.719Z,1012.73
2018-09-17T01:36:29.706Z,1012.70
2018-09-17T01:37:29.691Z,1012.65
2018-09-17T01:38:29.670Z,1012.59
2018-09-17T01:39:29.650Z,1012.50
2018-09-17T01:40:29.627Z,1012.54
2018-09-17T01:41:29.611Z,1012.55
2018-09-17T01:42:29.593Z,1012.58
2018-09-17T01:43:29.574Z,1012.61
2018-09-17T01:44:29.554Z,1012.66
2018-09-17T01:45:29.537Z,1012.63
2018-09-17T01:46:29.519Z,1012.63
2018-09-17T01:47:29.507Z,1012.63
2018-09-17T01:48:29.488Z,1012.61
2018-09-17T01:49:29.469Z,1012.58
2018-09-17T01:50:29.446Z,1012.52
2018-09-17T01:51:29.432Z,1012.53
2018-09-17T01:52:29.412Z,1012.50
2018-09-17T01:53:29.391Z,1012.54
2018-09-17T01:54:29.374Z,1012.51
2018-09-17T01:55:29.357Z,1012.51
2018-09-17T01:56:29.335Z,1012.53
2018-09-17T01:57:29.324Z,1012.52
2018-09-17T01:58:29.301Z,1012.55
2018-09-17T01:59:29.286Z,1012.53
2018-09-17T02:00:29.263Z,1012.52
2018-09-17T02:01:29.244Z,1012.52
2018-09-17T02:02:29.227Z,1012.53
2018-09-17T02:03:29.211Z,1012.55
2018-09-17T02:04:29.189Z,1012.55
2018-09-17T02:05:29.170Z,1012.50
2018-09-17T02:06:29.152Z,1012.55
2018-09-17T02:07:29.135Z,1012.52
2018-09-17T02:08:29.139Z,1012.51
2018-09-17T02:09:29.144Z,1012.48
2018-09-17T02:10:29.082Z,1012.48
2018-09-17T02:11:29.062Z,1012.51
2018-09-17T02:12:29.041Z,1012.51
2018-09-17T02:13:29.024Z,1012.49
2018-09-17T02:14:29.007Z,1012.48
2018-09-17T02:15:28.989Z,1012.51
2018-09-17T02:16:28.988Z,1012.53
2018-09-17T02:17:28.952Z,1012.53
2018-09-17T02:18:28.949Z,1012.57
2018-09-17T02:19:28.916Z,1012.57
2018-09-17T02:20:28.915Z,1012.61
2018-09-17T02:21:28.878Z,1012.60
2018-09-17T02:22:28.868Z,1012.64
2018-09-17T02:23:28.843Z,1012.66
2018-09-17T02:24:28.828Z,1012.69
2018-09-17T02:25:28.804Z,1012.70
2018-09-17T02:26:28.795Z,1012.74
2018-09-17T02:27:28.769Z,1012.72
2018-09-17T02:28:28.751Z,1012.73
2018-09-17T02:29:28.732Z,1012.75
2018-09-17T02:30:28.720Z,1012.78
2018-09-17T02:31:28.698Z,1012.84
2018-09-17T02:32:28.681Z,1012.81
2018-09-17T02:33:28.658Z,1012.84
2018-09-17T02:34:28.661Z,1012.89
2018-09-17T02:35:28.626Z,1012.94
2018-09-17T02:36:28.605Z,1012.93
2018-09-17T02:37:28.583Z,1012.94
2018-09-17T02:38:28.571Z,1012.94
2018-09-17T02:39:28.548Z,1012.94
2018-09-17T02:40:28.530Z,1012.91
2018-09-17T02:41:28.509Z,1012.90
2018-09-17T02:42:28.493Z,1012.93
2018-09-17T02:43:28.474Z,1012.91
2018-09-17T02:44:28.458Z,1012.92
2018-09-17T02:45:28.437Z,1012.90
2018-09-17T02:46:28.429Z,1012.89
2018-09-17T02:47:28.402Z,1012.87
2018-09-17T02:48:28.392Z,1012.86
2018-09-17T02:49:28.363Z,1012.86
2018-09-17T02:50:28.353Z,1012.82
2018-09-17T02:51:28.333Z,1012.85
2018-09-17T02:52:28.314Z,1012.87
2018-09-17T02:53:28.313Z,1012.87
2018-09-17T02:54:28.272Z,1012.89
2018-09-17T02:55:28.256Z,1012.82
2018-09-17T02:56:28.237Z,1012.84
2018-09-17T02:57:28.216Z,1012.79
2018-09-17T02:58:28.205Z,1012.86
2018-09-17T02:59:28.180Z,1012.85
2018-09-17T03:00:28.163Z,1012.89
2018-09-17T03:01:28.143Z,1012.91
2018-09-17T03:02:28.123Z,1012.92
2018-09-17T03:03:28.105Z,1012.92
2018-09-17T03:04:28.094Z,1012.91
2018-09-17T03:05:28.091Z,1012.86
2018-09-17T03:06:28.050Z,1012.86
2018-09-17T03:07:28.034Z,1012.86
2018-09-17T03:08:28.013Z,1012.85
2018-09-17T03:09:28.002Z,1012.87
2018-09-17T03:10:27.975Z,1012.88
2018-09-17T03:11:27.962Z,1012.90
2018-09-17T03:12:27.942Z,1012.86
2018-09-17T03:13:27.935Z,1012.87
2018-09-17T03:14:27.903Z,1012.84
2018-09-17T03:15:27.888Z,1012.85
2018-09-17T03:16:27.868Z,1012.86
2018-09-17T03:17:27.849Z,1012.87
2018-09-17T03:18:27.834Z,1012.93
2018-09-17T03:19:27.810Z,1012.95
2018-09-17T03:20:27.792Z,1012.98
2018-09-17T03:21:27.776Z,1012.98
2018-09-17T03:22:27.761Z,1012.94
2018-09-17T03:23:27.735Z,1012.98
2018-09-17T03:24:27.778Z,1012.98
2018-09-17T03:25:27.702Z,1012.95
2018-09-17T03:26:27.685Z,1012.93
2018-09-17T03:27:27.674Z,1012.89
2018-09-17T03:28:27.643Z,1012.88
2018-09-17T03:29:27.626Z,1012.89
2018-09-17T03:30:27.609Z,1012.85
2018-09-17T03:31:27.595Z,1012.85
2018-09-17T03:32:27.570Z,1012.81
2018-09-17T03:33:27.551Z,1012.80
2018-09-17T03:34:27.536Z,1012.87
2018-09-17T03:35:27.525Z,1012.89
2018-09-17T03:36:27.494Z,1012.88
2018-09-17T03:37:27.477Z,1012.87
2018-09-17T03:38:27.463Z,1012.88
2018-09-17T03:39:27.452Z,1012.85
2018-09-17T03:40:27.421Z,1012.80
2018-09-17T03:41:27.408Z,1012.86
2018-09-17T03:42:27.392Z,1012.85
2018-09-17T03:43:27.377Z,1012.86
2018-09-17T03:44:27.351Z,1012.83
2018-09-17T03:45:27.327Z,1012.82
2018-09-17T03:46:27.322Z,1012.83
2018-09-17T03:47:27.300Z,1012.84
2018-09-17T03:48:27.280Z,1012.87
2018-09-17T03:49:27.263Z,1012.86
2018-09-17T03:50:27.239Z,1012.90
2018-09-17T03:51:27.226Z,1012.90
2018-09-17T03:52:27.199Z,1012.88
2018-09-17T03:53:27.181Z,1012.90
2018-09-17T03:54:27.176Z,1012.85
2018-09-17T03:55:27.155Z,1012.86
2018-09-17T03:56:27.127Z,1012.84
2018-09-17T03:57:27.104Z,1012.79
2018-09-17T03:58:27.089Z,1012.81
2018-09-17T03:59:27.081Z,1012.89
2018-09-17T04:00:27.050Z,1012.92
2018-09-17T04:01:27.042Z,1012.92
2018-09-17T04:02:27.017Z,1012.94
2018-09-17T04:03:27.000Z,1012.93
2018-09-17T04:04:26.975Z,1012.96
2018-09-17T04:05:26.961Z,1012.96
2018-09-17T04:06:26.939Z,1012.94
2018-09-17T04:07:26.929Z,1012.87
2018-09-17T04:08:26.902Z,1012.81
2018-09-17T04:09:26.884Z,1012.83
2018-09-17T04:10:26.864Z,1012.80
2018-09-17T04:11:26.847Z,1012.79
2018-09-17T04:12:26.825Z,1012.81
2018-09-17T04:13:26.831Z,1012.80
2018-09-17T04:14:26.789Z,1012.77
2018-09-17T04:15:26.779Z,1012.76
2018-09-17T04:16:26.762Z,1012.76
2018-09-17T04:17:26.734Z,1012.76
2018-09-17T04:18:26.718Z,1012.73
2018-09-17T04:19:26.700Z,1012.76
2018-09-17T04:20:26.674Z,1012.74
2018-09-17T04:21:26.660Z,1012.80
2018-09-17T04:22:26.640Z,1012.79
2018-09-17T04:23:26.621Z,1012.79
2018-09-17T04:24:26.608Z,1012.82
2018-09-17T04:25:26.592Z,1012.78
2018-09-17T04:26:26.566Z,1012.80
2018-09-17T04:27:26.549Z,1012.82
2018-09-17T04:28:26.528Z,1012.79
2018-09-17T04:29:26.512Z,1012.77
2018-09-17T04:30:26.489Z,1012.80
2018-09-17T04:31:26.522Z,1012.78
2018-09-17T04:32:26.458Z,1012.76
2018-09-17T04:33:26.433Z,1012.80
2018-09-17T04:34:26.416Z,1012.81
2018-09-17T04:35:26.420Z,1012.85
2018-09-17T04:36:26.380Z,1012.84
2018-09-17T04:37:26.360Z,1012.88
2018-09-17T04:38:26.343Z,1012.91
2018-09-17T04:39:26.323Z,1012.92
2018-09-17T04:40:26.307Z,1012.93
2018-09-17T04:41:26.283Z,1012.91
2018-09-17T04:42:26.266Z,1012.95
2018-09-17T04:43:26.268Z,1012.97
2018-09-17T04:44:26.228Z,1012.94
2018-09-17T04:45:26.209Z,1012.92
2018-09-17T04:46:26.190Z,1012.94
2018-09-17T04:47:26.175Z,1012.94
2018-09-17T04:48:26.153Z,1012.91
2018-09-17T04:49:26.138Z,1012.89
2018-09-17T04:50:26.117Z,1012.89
2018-09-17T04:51:26.108Z,1012.91
2018-09-17T04:52:26.079Z,1012.91
2018-09-17T04:53:26.060Z,1012.89
2018-09-17T04:54:26.353Z,1012.95
2018-09-17T04:55:26.210Z,1012.92
2018-09-17T04:56:26.044Z,1012.89
2018-09-17T04:57:26.101Z,1012.93
2018-09-17T04:58:25.967Z,1012.95
2018-09-17T04:59:25.959Z,1012.95
2018-09-17T05:00:25.932Z,1012.97
2018-09-17T05:01:25.928Z,1012.98
2018-09-17T05:02:26.320Z,1012.97
2018-09-17T05:03:27.080Z,1012.96
2018-09-17T05:04:25.926Z,1013.00
2018-09-17T05:05:25.944Z,1013.00
2018-09-17T05:06:25.818Z,1013.02
2018-09-17T05:07:26.594Z,1013.03
2018-09-17T05:08:25.785Z,1013.05
2018-09-17T05:09:25.760Z,1013.04
2018-09-17T05:10:25.743Z,1013.06
2018-09-17T05:11:25.726Z,1013.08
2018-09-17T05:12:25.713Z,1013.11
2018-09-17T05:13:25.857Z,1013.08
2018-09-17T05:14:25.675Z,1013.11
2018-09-17T05:15:25.671Z,1013.10
2018-09-17T05:16:25.634Z,1013.09
2018-09-17T05:17:25.611Z,1013.14
2018-09-17T05:18:25.593Z,1013.12
2018-09-17T05:19:25.634Z,1013.15
2018-09-17T05:20:25.555Z,1013.11
2018-09-17T05:21:25.540Z,1013.13
2018-09-17T05:22:25.517Z,1013.16
2018-09-17T05:23:25.503Z,1013.13
2018-09-17T05:24:25.487Z,1013.17
2018-09-17T05:25:25.467Z,1013.15
2018-09-17T05:26:25.443Z,1013.13
2018-09-17T05:27:25.426Z,1013.16
2018-09-17T05:28:25.404Z,1013.15
2018-09-17T05:29:25.413Z,1013.15
2018-09-17T05:30:25.375Z,1013.15
2018-09-17T05:31:25.352Z,1013.15
2018-09-17T05:32:25.334Z,1013.17
2018-09-17T05:33:25.315Z,1013.11
2018-09-17T05:34:25.300Z,1013.15
2018-09-17T05:35:25.278Z,1013.14
2018-09-17T05:36:25.256Z,1013.15
2018-09-17T05:37:25.242Z,1013.17
2018-09-17T05:38:25.219Z,1013.17
2018-09-17T05:39:25.205Z,1013.16
2018-09-17T05:40:25.181Z,1013.19
2018-09-17T05:41:25.163Z,1013.18
2018-09-17T05:42:25.150Z,1013.19
2018-09-17T05:43:25.129Z,1013.18
2018-09-17T05:44:25.179Z,1013.19
2018-09-17T05:45:25.090Z,1013.18
2018-09-17T05:46:25.074Z,1013.19
2018-09-17T05:47:25.056Z,1013.19
2018-09-17T05:48:25.030Z,1013.22
2018-09-17T05:49:25.012Z,1013.25
2018-09-17T05:50:24.994Z,1013.23
2018-09-17T05:51:24.977Z,1013.22
2018-09-17T05:52:24.998Z,1013.25
2018-09-17T05:53:24.939Z,1013.25
2018-09-17T05:54:24.925Z,1013.25
2018-09-17T05:55:25.023Z,1013.24
2018-09-17T05:56:24.885Z,1013.27
2018-09-17T05:57:24.865Z,1013.24
2018-09-17T05:58:24.845Z,1013.27
2018-09-17T05:59:24.882Z,1013.29
2018-09-17T06:00:24.812Z,1013.27
2018-09-17T06:01:24.789Z,1013.32
2018-09-17T06:02:24.769Z,1013.31
2018-09-17T06:03:24.755Z,1013.30
2018-09-17T06:04:24.736Z,1013.31
2018-09-17T06:05:24.756Z,1013.35
2018-09-17T06:06:24.694Z,1013.34
2018-09-17T06:07:24.678Z,1013.41
2018-09-17T06:08:24.659Z,1013.42
2018-09-17T06:09:24.696Z,1013.42
2018-09-17T06:10:24.623Z,1013.45
2018-09-17T06:11:24.681Z,1013.42
2018-09-17T06:12:24.615Z,1013.47
2018-09-17T06:13:24.572Z,1013.48
2018-09-17T06:14:24.584Z,1013.47
2018-09-17T06:15:24.526Z,1013.52
2018-09-17T06:16:24.515Z,1013.53
2018-09-17T06:17:24.545Z,1013.52
2018-09-17T06:18:24.486Z,1013.57
2018-09-17T06:19:24.451Z,1013.58
2018-09-17T06:20:24.457Z,1013.58
2018-09-17T06:21:24.415Z,1013.55
2018-09-17T06:22:24.395Z,1013.54
2018-09-17T06:23:24.384Z,1013.49
2018-09-17T06:24:24.361Z,1013.56
2018-09-17T06:25:24.339Z,1013.55
2018-09-17T06:26:24.373Z,1013.53
2018-09-17T06:27:24.301Z,1013.54
2018-09-17T06:28:24.291Z,1013.55
2018-09-17T06:29:24.263Z,1013.55
2018-09-17T06:30:24.247Z,1013.55
2018-09-17T06:31:24.231Z,1013.55
2018-09-17T06:32:24.228Z,1013.57
2018-09-17T06:33:24.189Z,1013.58
2018-09-17T06:34:24.174Z,1013.61
2018-09-17T06:35:24.152Z,1013.61
2018-09-17T06:36:24.210Z,1013.59
2018-09-17T06:37:24.125Z,1013.62
2018-09-17T06:38:24.097Z,1013.60
2018-09-17T06:39:24.083Z,1013.63
2018-09-17T06:40:24.057Z,1013.65
2018-09-17T06:41:24.044Z,1013.63
2018-09-17T06:42:24.024Z,1013.66
2018-09-17T06:43:24.005Z,1013.67
2018-09-17T06:44:23.991Z,1013.63
2018-09-17T06:45:23.964Z,1013.66
2018-09-17T06:46:23.955Z,1013.65
2018-09-17T06:47:23.962Z,1013.67
2018-09-17T06:48:23.907Z,1013.71
2018-09-17T06:49:23.893Z,1013.69
2018-09-17T06:50:23.874Z,1013.67
2018-09-17T06:51:23.862Z,1013.67
2018-09-17T06:52:23.833Z,1013.64
2018-09-17T06:53:23.819Z,1013.61
2018-09-17T06:54:23.798Z,1013.60
2018-09-17T06:55:23.781Z,1013.59
2018-09-17T06:56:23.758Z,1013.60
2018-09-17T06:57:23.742Z,1013.59
2018-09-17T06:58:23.723Z,1013.64
2018-09-17T06:59:23.704Z,1013.61
2018-09-17T07:00:23.689Z,1013.61
2018-09-17T07:01:23.676Z,1013.64
2018-09-17T07:02:23.649Z,1013.62
2018-09-17T07:03:23.627Z,1013.59
2018-09-17T07:04:23.611Z,1013.59
2018-09-17T07:05:23.601Z,1013.62
2018-09-17T07:06:23.580Z,1013.60
2018-09-17T07:07:23.554Z,1013.63
2018-09-17T07:08:23.537Z,1013.63
2018-09-17T07:09:23.522Z,1013.62
2018-09-17T07:10:23.503Z,1013.59
2018-09-17T07:11:23.507Z,1013.57
2018-09-17T07:12:23.463Z,1013.61
2018-09-17T07:13:23.452Z,1013.56
2018-09-17T07:14:23.428Z,1013.58
2018-09-17T07:15:23.417Z,1013.58
2018-09-17T07:16:23.393Z,1013.58
2018-09-17T07:17:23.375Z,1013.55
2018-09-17T07:18:23.352Z,1013.55
2018-09-17T07:19:23.333Z,1013.57
2018-09-17T07:20:23.364Z,1013.57
2018-09-17T07:21:23.298Z,1013.52
2018-09-17T07:22:23.278Z,1013.54
2018-09-17T07:23:23.259Z,1013.56
2018-09-17T07:24:23.240Z,1013.48
2018-09-17T07:25:23.243Z,1013.50
2018-09-17T07:26:23.208Z,1013.49
2018-09-17T07:27:23.243Z,1013.51
2018-09-17T07:28:23.166Z,1013.52
2018-09-17T07:29:23.157Z,1013.51
2018-09-17T07:30:23.130Z,1013.53
2018-09-17T07:31:23.116Z,1013.51
2018-09-17T07:32:23.096Z,1013.52
2018-09-17T07:33:23.077Z,1013.52
2018-09-17T07:34:23.058Z,1013.51
2018-09-17T07:35:23.041Z,1013.53
2018-09-17T07:36:23.082Z,1013.57
2018-09-17T07:37:23.004Z,1013.59
2018-09-17T07:38:22.987Z,1013.60
2018-09-17T07:39:22.965Z,1013.57
2018-09-17T07:40:22.947Z,1013.59
2018-09-17T07:41:22.929Z,1013.60
2018-09-17T07:42:22.940Z,1013.62
2018-09-17T07:43:22.893Z,1013.60
2018-09-17T07:44:22.874Z,1013.65
2018-09-17T07:45:22.858Z,1013.65
2018-09-17T07:46:22.838Z,1013.65
2018-09-17T07:47:22.819Z,1013.65
2018-09-17T07:48:22.808Z,1013.64
2018-09-17T07:49:22.784Z,1013.61
2018-09-17T07:50:22.768Z,1013.60
2018-09-17T07:51:22.748Z,1013.57
2018-09-17T07:52:22.732Z,1013.59
2018-09-17T07:53:22.727Z,1013.59
2018-09-17T07:54:22.694Z,1013.57
2018-09-17T07:55:22.677Z,1013.55
2018-09-17T07:56:22.657Z,1013.55
2018-09-17T07:57:22.640Z,1013.58
2018-09-17T07:58:22.653Z,1013.52
2018-09-17T07:59:22.606Z,1013.53
2018-09-17T08:00:22.590Z,1013.52
2018-09-17T08:01:22.568Z,1013.50
2018-09-17T08:02:22.559Z,1013.50
2018-09-17T08:03:22.539Z,1013.52
2018-09-17T08:04:22.519Z,1013.49
2018-09-17T08:05:22.496Z,1013.54
2018-09-17T08:06:22.488Z,1013.55
2018-09-17T08:07:22.461Z,1013.56
2018-09-17T08:08:22.442Z,1013.60
2018-09-17T08:09:22.424Z,1013.58
2018-09-17T08:10:22.419Z,1013.58
2018-09-17T08:11:22.393Z,1013.55
2018-09-17T08:12:22.370Z,1013.56
2018-09-17T08:13:22.356Z,1013.56
2018-09-17T08:14:22.336Z,1013.56
2018-09-17T08:15:22.321Z,1013.59
2018-09-17T08:16:22.299Z,1013.50
2018-09-17T08:17:22.284Z,1013.50
2018-09-17T08:18:22.267Z,1013.53
2018-09-17T08:19:22.246Z,1013.47
2018-09-17T08:20:22.229Z,1013.45
2018-09-17T08:21:22.213Z,1013.41
2018-09-17T08:22:22.193Z,1013.41
2018-09-17T08:23:22.176Z,1013.41
2018-09-17T08:24:22.174Z,1013.40
2018-09-17T08:25:22.172Z,1013.43
2018-09-17T08:26:22.125Z,1013.42
2018-09-17T08:27:22.104Z,1013.48
2018-09-17T08:28:22.104Z,1013.47
2018-09-17T08:29:22.099Z,1013.53
2018-09-17T08:30:22.105Z,1013.48
2018-09-17T08:31:22.104Z,1013.53
2018-09-17T08:32:22.061Z,1013.55
2018-09-17T08:33:22.004Z,1013.53
2018-09-17T08:34:22.076Z,1013.62
2018-09-17T08:35:21.999Z,1013.58
2018-09-17T08:36:22.057Z,1013.61
2018-09-17T08:37:21.956Z,1013.59
2018-09-17T08:38:22.065Z,1013.61
2018-09-17T08:39:21.898Z,1013.63
2018-09-17T08:40:21.880Z,1013.61
2018-09-17T08:41:21.864Z,1013.64
2018-09-17T08:42:21.842Z,1013.66
2018-09-17T08:43:21.825Z,1013.66
2018-09-17T08:44:21.807Z,1013.62
2018-09-17T08:45:21.801Z,1013.62
2018-09-17T08:46:21.779Z,1013.61
2018-09-17T08:47:21.755Z,1013.60
2018-09-17T08:48:21.739Z,1013.58
2018-09-17T08:49:21.725Z,1013.63
2018-09-17T08:50:21.706Z,1013.63
2018-09-17T08:51:21.689Z,1013.64
2018-09-17T08:52:21.712Z,1013.64
2018-09-17T08:53:21.651Z,1013.63
2018-09-17T08:54:21.633Z,1013.65
2018-09-17T08:55:21.619Z,1013.65
2018-09-17T08:56:21.597Z,1013.57
2018-09-17T08:57:21.624Z,1013.59
2018-09-17T08:58:21.569Z,1013.57
2018-09-17T08:59:21.545Z,1013.55
2018-09-17T09:00:21.532Z,1013.52
2018-09-17T09:01:21.511Z,1013.47
2018-09-17T09:02:21.505Z,1013.53
2018-09-17T09:03:21.479Z,1013.54
2018-09-17T09:04:21.463Z,1013.53
2018-09-17T09:05:21.443Z,1013.56
2018-09-17T09:06:21.427Z,1013.60
2018-09-17T09:07:21.411Z,1013.56
2018-09-17T09:08:21.396Z,1013.56
2018-09-17T09:09:21.373Z,1013.51
2018-09-17T09:10:21.357Z,1013.55
2018-09-17T09:11:21.340Z,1013.54
2018-09-17T09:12:21.325Z,1013.57
2018-09-17T09:13:21.305Z,1013.55
2018-09-17T09:14:21.286Z,1013.59
2018-09-17T09:15:21.294Z,1013.57
2018-09-17T09:16:21.251Z,1013.58
2018-09-17T09:17:21.247Z,1013.56
2018-09-17T09:18:21.219Z,1013.60
2018-09-17T09:19:21.214Z,1013.55
2018-09-17T09:20:21.192Z,1013.55
2018-09-17T09:21:21.166Z,1013.53
2018-09-17T09:22:21.164Z,1013.56
2018-09-17T09:23:21.134Z,1013.55
2018-09-17T09:24:21.114Z,1013.48
2018-09-17T09:25:21.113Z,1013.51
2018-09-17T09:26:21.146Z,1013.48
2018-09-17T09:27:21.065Z,1013.46
2018-09-17T09:28:21.046Z,1013.47
2018-09-17T09:29:21.031Z,1013.49
2018-09-17T09:30:21.014Z,1013.46
2018-09-17T09:31:20.996Z,1013.43
2018-09-17T09:32:20.993Z,1013.44
2018-09-17T09:33:20.971Z,1013.43
2018-09-17T09:34:20.946Z,1013.46
2018-09-17T09:35:20.935Z,1013.46
2018-09-17T09:36:20.915Z,1013.43
2018-09-17T09:37:20.894Z,1013.40
2018-09-17T09:38:20.883Z,1013.40
2018-09-17T09:39:20.885Z,1013.41
2018-09-17T09:40:20.849Z,1013.41
2018-09-17T09:41:20.827Z,1013.43
2018-09-17T09:42:20.810Z,1013.40
2018-09-17T09:43:20.795Z,1013.41
2018-09-17T09:44:20.777Z,1013.39
2018-09-17T09:45:20.760Z,1013.41
2018-09-17T09:46:20.747Z,1013.37
2018-09-17T09:47:20.726Z,1013.40
2018-09-17T09:48:20.710Z,1013.38
2018-09-17T09:49:20.697Z,1013.34
2018-09-17T09:50:20.677Z,1013.34
2018-09-17T09:51:20.666Z,1013.39
2018-09-17T09:52:20.648Z,1013.35
2018-09-17T09:53:20.627Z,1013.38
2018-09-17T09:54:20.615Z,1013.36
2018-09-17T09:55:20.598Z,1013.35
2018-09-17T09:56:20.575Z,1013.40
2018-09-17T09:57:20.561Z,1013.35
2018-09-17T09:58:20.543Z,1013.35
2018-09-17T09:59:20.537Z,1013.38
2018-09-17T10:00:20.510Z,1013.34
2018-09-17T10:01:20.494Z,1013.36
2018-09-17T10:02:20.480Z,1013.30
2018-09-17T10:03:20.459Z,1013.33
2018-09-17T10:04:20.444Z,1013.28
2018-09-17T10:05:20.431Z,1013.27
2018-09-17T10:06:20.426Z,1013.28
2018-09-17T10:07:20.396Z,1013.28
2018-09-17T10:08:20.381Z,1013.25
2018-09-17T10:09:20.358Z,1013.25
2018-09-17T10:10:20.343Z,1013.19
2018-09-17T10:11:20.327Z,1013.19
2018-09-17T10:12:20.331Z,1013.22
2018-09-17T10:13:20.292Z,1013.20
2018-09-17T10:14:20.299Z,1013.16
2018-09-17T10:15:20.273Z,1013.15
2018-09-17T10:16:20.243Z,1013.13
2018-09-17T10:17:20.228Z,1013.13
2018-09-17T10:18:20.213Z,1013.15
2018-09-17T10:19:20.258Z,1013.16
2018-09-17T10:20:20.176Z,1013.12
2018-09-17T10:21:20.159Z,1013.11
2018-09-17T10:22:20.147Z,1013.11
2018-09-17T10:23:20.127Z,1013.09
2018-09-17T10:24:20.111Z,1013.11
2018-09-17T10:25:20.109Z,1013.10
2018-09-17T10:26:20.080Z,1013.06
2018-09-17T10:27:20.065Z,1013.08
2018-09-17T10:28:20.052Z,1013.07
2018-09-17T10:29:20.033Z,1013.08
2018-09-17T10:30:20.028Z,1013.07
2018-09-17T10:31:20.015Z,1013.04
2018-09-17T10:32:19.981Z,1013.08
2018-09-17T10:33:19.962Z,1013.05
2018-09-17T10:34:19.951Z,1013.00
2018-09-17T10:35:19.932Z,1013.01
2018-09-17T10:36:19.925Z,1013.00
2018-09-17T10:37:19.909Z,1013.03
2018-09-17T10:38:19.885Z,1013.03
2018-09-17T10:39:19.865Z,1012.98
2018-09-17T10:40:19.849Z,1013.01
2018-09-17T10:41:19.839Z,1013.00
2018-09-17T10:42:19.817Z,1013.01
2018-09-17T10:43:19.815Z,1012.91
2018-09-17T10:44:19.786Z,1012.87
2018-09-17T10:45:19.766Z,1012.87
2018-09-17T10:46:19.752Z,1012.89
2018-09-17T10:47:19.739Z,1012.89
2018-09-17T10:48:19.725Z,1012.85
2018-09-17T10:49:19.702Z,1012.87
2018-09-17T10:50:19.703Z,1012.86
2018-09-17T10:51:19.672Z,1012.85
2018-09-17T10:52:19.666Z,1012.79
2018-09-17T10:53:19.647Z,1012.86
2018-09-17T10:54:19.623Z,1012.85
2018-09-17T10:55:19.605Z,1012.85
2018-09-17T10:56:19.592Z,1012.81
2018-09-17T10:57:19.593Z,1012.85
2018-09-17T10:58:19.561Z,1012.82
2018-09-17T10:59:19.542Z,1012.84
2018-09-17T11:00:19.526Z,1012.79
2018-09-17T11:01:19.512Z,1012.82
2018-09-17T11:02:19.494Z,1012.75
2018-09-17T11:03:19.481Z,1012.73
2018-09-17T11:04:19.484Z,1012.78
2018-09-17T11:05:19.452Z,1012.82
2018-09-17T11:06:19.431Z,1012.80
2018-09-17T11:07:19.415Z,1012.77
2018-09-17T11:08:19.421Z,1012.83
2018-09-17T11:09:19.386Z,1012.74
2018-09-17T11:10:19.368Z,1012.72
2018-09-17T11:11:19.350Z,1012.70
2018-09-17T11:12:19.344Z,1012.71
2018-09-17T11:13:19.324Z,1012.67
2018-09-17T11:14:19.316Z,1012.65
2018-09-17T11:15:19.289Z,1012.63
2018-09-17T11:16:19.270Z,1012.65
2018-09-17T11:17:19.370Z,1012.62
2018-09-17T11:18:19.248Z,1012.67
2018-09-17T11:19:19.226Z,1012.66
2018-09-17T11:20:19.207Z,1012.71
2018-09-17T11:21:19.202Z,1012.69
2018-09-17T11:22:19.175Z,1012.69
2018-09-17T11:23:19.164Z,1012.70
2018-09-17T11:24:19.148Z,1012.68
2018-09-17T11:25:19.129Z,1012.71
2018-09-17T11:26:19.114Z,1012.68
2018-09-17T11:27:19.100Z,1012.67
2018-09-17T11:28:19.080Z,1012.65
2018-09-17T11:29:19.064Z,1012.62
2018-09-17T11:30:19.053Z,1012.59
2018-09-17T11:31:19.080Z,1012.65
2018-09-17T11:32:19.023Z,1012.66
2018-09-17T11:33:19.009Z,1012.69
2018-09-17T11:34:18.987Z,1012.65
2018-09-17T11:35:18.978Z,1012.67
2018-09-17T11:36:18.956Z,1012.61
2018-09-17T11:37:18.938Z,1012.60
2018-09-17T11:38:18.926Z,1012.66
2018-09-17T11:39:18.914Z,1012.62
2018-09-17T11:40:18.892Z,1012.60
2018-09-17T11:41:18.888Z,1012.57
2018-09-17T11:42:18.869Z,1012.55
2018-09-17T11:43:18.847Z,1012.59
2018-09-17T11:44:18.830Z,1012.55
2018-09-17T11:45:18.834Z,1012.53
2018-09-17T11:46:18.832Z,1012.53
2018-09-17T11:47:18.783Z,1012.50
2018-09-17T11:48:18.785Z,1012.47
2018-09-17T11:49:18.756Z,1012.49
2018-09-17T11:50:18.750Z,1012.49
2018-09-17T11:51:18.728Z,1012.51
2018-09-17T11:52:18.731Z,1012.50
2018-09-17T11:53:18.692Z,1012.49
2018-09-17T11:54:18.676Z,1012.51
2018-09-17T11:55:18.663Z,1012.50
2018-09-17T11:56:18.647Z,1012.47
2018-09-17T11:57:18.636Z,1012.44
2018-09-17T11:58:18.664Z,1012.44
2018-09-17T11:59:18.601Z,1012.41
2018-09-17T12:00:18.583Z,1012.43
2018-09-17T12:01:18.574Z,1012.43
2018-09-17T12:02:18.618Z,1012.44
2018-09-17T12:03:18.540Z,1012.43
2018-09-17T12:04:18.522Z,1012.43
2018-09-17T12:05:18.525Z,1012.44